Time;durP1;ratioP1;P1;durP2;ratioP2;P2;SDS_P1;SDS_P2;PMS_P1;PMS_P2;Temp;Humidity;BMP_temperature;BMP_pressure;BME280_temperature;BME280_humidity;BME280_pressure;Samples;Min_cycle;Max_cycle;Signal;HPM_P1;HPM_P2
2021/12/09 00:00:01;;;;;;;;;;;;;;;;;;1002148;29;1059;-17
2021/12/09 00:00:37;;;;;;;;;;;;;;;;;;1002009;29;1268;-17
2021/12/09 00:01:08;;;;;;;;;;;;;;;;;;1004948;29;1245;-16
2021/12/09 00:01:40;;;;;;;;;;;;;;;;;;1004003;29;891;-17
2021/12/09 00:02:13;;;;;;;;;;;;;;;;;;1005060;29;955;-17
2021/12/09 00:02:44;;;;;;;;;;;;;;;;;;1008952;29;1308;-17
2021/12/09 00:03:15;;;;;;;;;;;;;;;;;;1008722;29;961;-17
2021/12/09 00:03:46;;;;;;;;;;;;;;;;;;1001036;29;930;-17
2021/12/09 00:04:24;;;;;;;;;;;;;;;;;;1001259;29;841;-17
2021/12/09 00:04:56;;;;;;;;;;;;;;;;;;996903;29;1119;-17
2021/12/09 00:05:28;;;;;;;;;;;;;;;;;;998578;29;1146;-17
2021/12/09 00:05:59;;;;;;;;;;;;;;;;;;1002644;29;923;-17
2021/12/09 00:06:30;;;;;;;;;;;;;;;;;;1007615;29;1906;-17
2021/12/09 00:07:01;;;;;;;;;;;;;;;;;;1012793;29;1193;-16
2021/12/09 00:07:32;;;;;;;;;;;;;;;;;;1008488;29;1103;-17
2021/12/09 00:08:03;;;;;;;;;;;;;;;;;;1013038;29;1126;-17
2021/12/09 00:08:34;;;;;;;;;;;;;;;;;;1012149;29;978;-17
2021/12/09 00:09:08;;;;;;;;;;;;;;;;;;1008875;29;1281;-17
2021/12/09 00:09:39;;;;;;;;;;;;;;;;;;1004922;29;956;-16
2021/12/09 00:10:11;;;;;;;;;;;;;;;;;;1004462;29;1447;-16
2021/12/09 00:10:48;;;;;;;;;;;;;;;;;;1004772;29;1062;-17
2021/12/09 00:11:18;;;;;;;;;;;;;;;;;;1006694;29;1037;-17
2021/12/09 00:11:50;;;;;;;;;;;;;;;;;;1012657;29;1295;-17
2021/12/09 00:12:22;;;;;;;;;;;;;;;;;;1012762;29;1014;-17
2021/12/09 00:12:53;;;;;;;;;;;;;;;;;;1012379;29;1050;-17
2021/12/09 00:13:24;;;;;;;;;;;;;;;;;;1009001;29;893;-17
2021/12/09 00:13:54;;;;;;;;;;;;;;;;;;1009097;29;958;-17
2021/12/09 00:14:27;;;;;;;;;;;;;;;;;;1013388;29;948;-16
2021/12/09 00:14:58;;;;;;;;;;;;;;;;;;1013385;29;1035;-17
2021/12/09 00:15:29;;;;;;;;;;;;;;;;;;1004740;29;941;-17
2021/12/09 00:15:59;;;;;;;;;;;;;;;;;;1005149;29;982;-17
2021/12/09 00:16:30;;;;;;;;;;;;;;;;;;1004814;29;900;-17
2021/12/09 00:17:04;;;;;;;;;;;;;;;;;;1004834;29;1559;-16
2021/12/09 00:17:35;;;;;;;;;;;;;;;;;;1007986;29;1311;-17
2021/12/09 00:18:06;;;;;;;;;;;;;;;;;;997882;29;1279;-17
2021/12/09 00:18:36;;;;;;;;;;;;;;;;;;1006231;29;964;-17
2021/12/09 00:19:06;;;;;;;;;;;;;;;;;;998150;29;985;-17
2021/12/09 00:19:37;;;;;;;;;;;;;;;;;;1006757;29;1334;-17
2021/12/09 00:20:09;;;;;;;;;;;;;;;;;;1013431;29;1050;-17
2021/12/09 00:20:40;;;;;;;;;;;;;;;;;;1012360;29;1291;-17
2021/12/09 00:21:11;;;;;;;;;;;;;;;;;;1011830;29;1253;-17
2021/12/09 00:21:41;;;;;;;;;;;;;;;;;;1009927;29;1128;-17
2021/12/09 00:22:12;;;;;;;;;;;;;;;;;;1009795;29;1172;-17
2021/12/09 00:22:43;;;;;;;;;;;;;;;;;;1010931;29;1497;-17
2021/12/09 00:23:13;;;;;;;;;;;;;;;;;;1008918;29;1415;-17
2021/12/09 00:23:43;;;;;;;;;;;;;;;;;;1008418;29;969;-17
2021/12/09 00:24:14;;;;;;;;;;;;;;;;;;1008171;29;1056;-17
2021/12/09 00:24:44;;;;;;;;;;;;;;;;;;1008753;29;971;-17
2021/12/09 00:25:15;;;;;;;;;;;;;;;;;;1008686;29;908;-17
2021/12/09 00:25:45;;;;;;;;;;;;;;;;;;1008573;29;1221;-17
2021/12/09 00:26:16;;;;;;;;;;;;;;;;;;1008577;29;1281;-17
2021/12/09 00:26:46;;;;;;;;;;;;;;;;;;1009121;29;1915;-17
2021/12/09 00:27:17;;;;;;;;;;;;;;;;;;1009080;29;1109;-17
2021/12/09 00:27:47;;;;;;;;;;;;;;;;;;1004170;29;1055;-17
2021/12/09 00:28:18;;;;;;;;;;;;;;;;;;1004696;29;951;-17
2021/12/09 00:28:48;;;;;;;;;;;;;;;;;;1004360;29;1481;-16
2021/12/09 00:29:18;;;;;;;;;;;;;;;;;;1004611;29;1022;-16
2021/12/09 00:29:49;;;;;;;;;;;;;;;;;;1009205;29;992;-17
2021/12/09 00:30:20;;;;;;;;;;;;;;;;;;1009128;29;1067;-17
2021/12/09 00:30:51;;;;;;;;;;;;;;;;;;1000948;29;963;-17
2021/12/09 00:31:23;;;;;;;;;;;;;;;;;;1000581;29;1226;-17
2021/12/09 00:31:53;;;;;;;;;;;;;;;;;;1000586;29;1127;-17
2021/12/09 00:32:24;;;;;;;;;;;;;;;;;;1001195;29;1283;-17
2021/12/09 00:32:54;;;;;;;;;;;;;;;;;;1004397;29;1237;-17
2021/12/09 00:33:25;;;;;;;;;;;;;;;;;;1009259;29;1011;-17
2021/12/09 00:33:57;;;;;;;;;;;;;;;;;;1003955;29;1297;-17
2021/12/09 00:34:32;;;;;;;;;;;;;;;;;;993186;29;1233;-17
2021/12/09 00:35:03;;;;;;;;;;;;;;;;;;993582;29;1011;-16
2021/12/09 00:36:35;;;;;;;;;;;;;;;;;;1007586;29;913;-17
2021/12/09 00:37:58;;;;;;;;;;;;;;;;;;1009484;29;927;-17
2021/12/09 00:38:37;;;;;;;;;;;;;;;;;;1004444;29;1341;-17
2021/12/09 00:39:10;;;;;;;;;;;;;;;;;;1004701;29;1006;-16
2021/12/09 00:39:41;;;;;;;;;;;;;;;;;;1004479;29;1324;-17
2021/12/09 00:40:11;;;;;;;;;;;;;;;;;;1007024;29;1119;-16
2021/12/09 00:40:42;;;;;;;;;;;;;;;;;;1008668;29;1041;-17
2021/12/09 00:41:14;;;;;;;;;;;;;;;;;;1009387;29;1098;-17
2021/12/09 00:41:44;;;;;;;;;;;;;;;;;;1008919;29;892;-17
2021/12/09 00:42:16;;;;;;;;;;;;;;;;;;1008696;29;1454;-17
2021/12/09 00:42:46;;;;;;;;;;;;;;;;;;1009142;29;1130;-17
2021/12/09 00:43:17;;;;;;;;;;;;;;;;;;1008586;29;1191;-17
2021/12/09 00:43:48;;;;;;;;;;;;;;;;;;1008456;29;963;-17
2021/12/09 00:44:18;;;;;;;;;;;;;;;;;;1008972;29;1177;-17
2021/12/09 00:44:49;;;;;;;;;;;;;;;;;;1008925;29;1046;-17
2021/12/09 00:45:21;;;;;;;;;;;;;;;;;;1009529;29;1696;-16
2021/12/09 00:45:52;;;;;;;;;;;;;;;;;;1009272;29;999;-17
2021/12/09 00:46:23;;;;;;;;;;;;;;;;;;1009405;29;1910;-16
2021/12/09 00:46:53;;;;;;;;;;;;;;;;;;1009209;29;904;-17
2021/12/09 00:47:23;;;;;;;;;;;;;;;;;;1009486;29;977;-17
2021/12/09 00:47:54;;;;;;;;;;;;;;;;;;1004669;29;905;-17
2021/12/09 00:48:25;;;;;;;;;;;;;;;;;;1004801;29;998;-16
2021/12/09 00:48:56;;;;;;;;;;;;;;;;;;1004591;29;961;-17
2021/12/09 00:49:30;;;;;;;;;;;;;;;;;;1001079;29;907;-17
2021/12/09 00:50:00;;;;;;;;;;;;;;;;;;1004895;29;975;-17
2021/12/09 00:50:30;;;;;;;;;;;;;;;;;;1004793;29;924;-17
2021/12/09 00:51:02;;;;;;;;;;;;;;;;;;1005414;29;1530;-17
2021/12/09 00:51:33;;;;;;;;;;;;;;;;;;1008652;29;1517;-16
2021/12/09 00:52:04;;;;;;;;;;;;;;;;;;1009245;29;1149;-17
2021/12/09 00:52:35;;;;;;;;;;;;;;;;;;1008877;29;1343;-16
2021/12/09 00:53:05;;;;;;;;;;;;;;;;;;1009229;29;1131;-17
2021/12/09 00:53:36;;;;;;;;;;;;;;;;;;1009466;29;972;-17
2021/12/09 00:54:06;;;;;;;;;;;;;;;;;;1009136;29;1036;-17
2021/12/09 00:54:38;;;;;;;;;;;;;;;;;;1009313;29;986;-17
2021/12/09 00:55:09;;;;;;;;;;;;;;;;;;1009114;29;1080;-16
2021/12/09 00:55:39;;;;;;;;;;;;;;;;;;1009116;29;1100;-17
2021/12/09 00:56:10;;;;;;;;;;;;;;;;;;1009336;29;1147;-17
2021/12/09 00:56:41;;;;;;;;;;;;;;;;;;1008317;29;1243;-17
2021/12/09 00:57:11;;;;;;;;;;;;;;;;;;1008532;29;1057;-17
2021/12/09 00:57:43;;;;;;;;;;;;;;;;;;1008780;29;956;-17
2021/12/09 00:58:14;;;;;;;;;;;;;;;;;;1009639;29;1232;-17
2021/12/09 00:58:45;;;;;;;;;;;;;;;;;;1008410;29;1094;-16
2021/12/09 00:59:15;;;;;;;;;;;;;;;;;;1000081;29;1341;-17
2021/12/09 00:59:46;;;;;;;;;;;;;;;;;;1000610;29;1208;-16
2021/12/09 01:00:18;;;;;;;;;;;;;;;;;;1001102;29;1050;-16
2021/12/09 01:00:49;;;;;;;;;;;;;;;;;;997291;29;1729;-17
2021/12/09 01:01:19;;;;;;;;;;;;;;;;;;1005358;29;1096;-17
2021/12/09 01:01:51;;;;;;;;;;;;;;;;;;1008680;29;1227;-16
2021/12/09 01:02:21;;;;;;;;;;;;;;;;;;1008633;29;1157;-17
2021/12/09 01:02:52;;;;;;;;;;;;;;;;;;1012689;29;964;-17
2021/12/09 01:03:23;;;;;;;;;;;;;;;;;;1008519;29;1060;-17
2021/12/09 01:03:53;;;;;;;;;;;;;;;;;;1008258;29;1308;-16
2021/12/09 01:04:24;;;;;;;;;;;;;;;;;;1004837;29;1084;-17
2021/12/09 01:04:54;;;;;;;;;;;;;;;;;;1008665;29;933;-17
2021/12/09 01:05:26;;;;;;;;;;;;;;;;;;1004984;29;1023;-17
2021/12/09 01:05:56;;;;;;;;;;;;;;;;;;1008240;29;1312;-17
2021/12/09 01:06:26;;;;;;;;;;;;;;;;;;1008799;29;1911;-17
2021/12/09 01:06:57;;;;;;;;;;;;;;;;;;1008748;29;1069;-17
2021/12/09 01:07:28;;;;;;;;;;;;;;;;;;1008186;29;1367;-17
2021/12/09 01:07:58;;;;;;;;;;;;;;;;;;1008690;29;1141;-17
2021/12/09 01:08:29;;;;;;;;;;;;;;;;;;1004659;29;1154;-17
2021/12/09 01:08:59;;;;;;;;;;;;;;;;;;1004674;29;1034;-16
2021/12/09 01:09:30;;;;;;;;;;;;;;;;;;1000864;29;1115;-17
2021/12/09 01:10:01;;;;;;;;;;;;;;;;;;996667;29;1679;-17
2021/12/09 01:10:32;;;;;;;;;;;;;;;;;;997002;29;1150;-17
2021/12/09 01:11:03;;;;;;;;;;;;;;;;;;1000977;29;1005;-17
2021/12/09 01:11:34;;;;;;;;;;;;;;;;;;1005024;29;979;-17
2021/12/09 01:12:05;;;;;;;;;;;;;;;;;;1008623;29;940;-16
2021/12/09 01:12:36;;;;;;;;;;;;;;;;;;1000904;29;1277;-17
2021/12/09 01:13:07;;;;;;;;;;;;;;;;;;1008572;29;1168;-17
2021/12/09 01:13:39;;;;;;;;;;;;;;;;;;1008130;29;1153;-16
2021/12/09 01:14:09;;;;;;;;;;;;;;;;;;1008399;29;1007;-17
2021/12/09 01:14:40;;;;;;;;;;;;;;;;;;1012046;29;1172;-17
2021/12/09 01:15:12;;;;;;;;;;;;;;;;;;1008362;29;1372;-17
2021/12/09 01:15:43;;;;;;;;;;;;;;;;;;1008564;29;1097;-17
2021/12/09 01:16:14;;;;;;;;;;;;;;;;;;1008791;29;965;-17
2021/12/09 01:16:44;;;;;;;;;;;;;;;;;;1012275;29;1005;-17
2021/12/09 01:17:15;;;;;;;;;;;;;;;;;;1008681;29;962;-17
2021/12/09 01:17:46;;;;;;;;;;;;;;;;;;1000557;29;1233;-17
2021/12/09 01:18:16;;;;;;;;;;;;;;;;;;1000665;29;1218;-17
2021/12/09 01:18:47;;;;;;;;;;;;;;;;;;1001226;29;882;-17
2021/12/09 01:19:17;;;;;;;;;;;;;;;;;;1004732;29;1169;-17
2021/12/09 01:19:48;;;;;;;;;;;;;;;;;;1012601;29;1105;-17
2021/12/09 01:20:20;;;;;;;;;;;;;;;;;;1012897;29;1624;-16
2021/12/09 01:20:51;;;;;;;;;;;;;;;;;;1013011;29;1306;-17
2021/12/09 01:21:21;;;;;;;;;;;;;;;;;;1008824;29;1050;-16
2021/12/09 01:21:51;;;;;;;;;;;;;;;;;;1008143;29;1208;-17
2021/12/09 01:22:29;;;;;;;;;;;;;;;;;;1008535;29;1226;-17
2021/12/09 01:23:02;;;;;;;;;;;;;;;;;;1001046;29;1036;-17
2021/12/09 01:23:33;;;;;;;;;;;;;;;;;;1000789;29;1221;-20
2021/12/09 01:24:04;;;;;;;;;;;;;;;;;;1000821;29;950;-17
2021/12/09 01:24:34;;;;;;;;;;;;;;;;;;1003191;29;1070;-17
2021/12/09 01:25:06;;;;;;;;;;;;;;;;;;1008617;29;872;-17
2021/12/09 01:25:37;;;;;;;;;;;;;;;;;;1012431;29;1379;-16
2021/12/09 01:26:08;;;;;;;;;;;;;;;;;;1004468;29;1011;-17
2021/12/09 01:26:39;;;;;;;;;;;;;;;;;;1008500;29;1899;-17
2021/12/09 01:27:11;;;;;;;;;;;;;;;;;;1000533;29;1078;-16
2021/12/09 01:27:44;;;;;;;;;;;;;;;;;;1000495;29;1149;-16
2021/12/09 01:28:25;;;;;;;;;;;;;;;;;;1001525;29;959;-17
2021/12/09 01:29:04;;;;;;;;;;;;;;;;;;1008514;29;1536;-17
2021/12/09 01:29:41;;;;;;;;;;;;;;;;;;1012977;29;1009;-17
2021/12/09 01:30:16;;;;;;;;;;;;;;;;;;1008483;29;958;-17
2021/12/09 01:30:49;;;;;;;;;;;;;;;;;;1008707;29;943;-17
2021/12/09 01:31:30;;;;;;;;;;;;;;;;;;1008332;29;1354;-16
2021/12/09 01:32:05;;;;;;;;;;;;;;;;;;996867;29;976;-17
2021/12/09 01:32:36;;;;;;;;;;;;;;;;;;996911;29;1292;-17
2021/12/09 01:33:09;;;;;;;;;;;;;;;;;;996891;29;1347;-16
2021/12/09 01:33:39;;;;;;;;;;;;;;;;;;1001827;29;1106;-17
2021/12/09 01:34:10;;;;;;;;;;;;;;;;;;1012886;29;1057;-17
2021/12/09 01:34:40;;;;;;;;;;;;;;;;;;1013049;29;982;-17
2021/12/09 01:35:11;;;;;;;;;;;;;;;;;;1003927;29;1361;-16
2021/12/09 01:35:47;;;;;;;;;;;;;;;;;;997126;29;1023;-17
2021/12/09 01:36:18;;;;;;;;;;;;;;;;;;1000634;29;1276;-17
2021/12/09 01:36:50;;;;;;;;;;;;;;;;;;998319;29;1251;-17
2021/12/09 01:37:20;;;;;;;;;;;;;;;;;;1004846;29;990;-17
2021/12/09 01:37:55;;;;;;;;;;;;;;;;;;1000058;29;1207;-17
2021/12/09 01:38:29;;;;;;;;;;;;;;;;;;1004606;29;1034;-17
2021/12/09 01:39:02;;;;;;;;;;;;;;;;;;1000214;29;1362;-18
2021/12/09 01:39:33;;;;;;;;;;;;;;;;;;999448;29;995;-17
2021/12/09 01:40:04;;;;;;;;;;;;;;;;;;997965;29;929;-16
2021/12/09 01:40:35;;;;;;;;;;;;;;;;;;1001161;29;1195;-16
2021/12/09 01:41:05;;;;;;;;;;;;;;;;;;1005519;29;975;-17
2021/12/09 01:41:36;;;;;;;;;;;;;;;;;;1013212;29;979;-17
2021/12/09 01:42:06;;;;;;;;;;;;;;;;;;1013182;29;920;-16
2021/12/09 01:42:37;;;;;;;;;;;;;;;;;;1012289;29;1021;-17
2021/12/09 01:43:07;;;;;;;;;;;;;;;;;;1011903;29;1647;-18
2021/12/09 01:43:38;;;;;;;;;;;;;;;;;;1012413;29;1197;-16
2021/12/09 01:44:08;;;;;;;;;;;;;;;;;;1012126;29;1096;-17
2021/12/09 01:44:39;;;;;;;;;;;;;;;;;;1013443;29;1019;-17
2021/12/09 01:45:10;;;;;;;;;;;;;;;;;;1008444;29;1119;-16
2021/12/09 01:45:40;;;;;;;;;;;;;;;;;;1008837;29;935;-17
2021/12/09 01:46:12;;;;;;;;;;;;;;;;;;1008407;29;805;-17
2021/12/09 01:46:43;;;;;;;;;;;;;;;;;;1008801;29;1915;-17
2021/12/09 01:47:13;;;;;;;;;;;;;;;;;;1012294;29;1184;-17
2021/12/09 01:47:44;;;;;;;;;;;;;;;;;;1012445;29;871;-17
2021/12/09 01:48:16;;;;;;;;;;;;;;;;;;1008461;29;1051;-17
2021/12/09 01:48:47;;;;;;;;;;;;;;;;;;1008758;29;1352;-17
2021/12/09 01:49:18;;;;;;;;;;;;;;;;;;1008301;29;1003;-16
2021/12/09 01:49:49;;;;;;;;;;;;;;;;;;997238;29;1019;-17
2021/12/09 01:50:19;;;;;;;;;;;;;;;;;;1000978;29;1251;-24
2021/12/09 01:50:50;;;;;;;;;;;;;;;;;;1000904;29;1152;-17
2021/12/09 01:51:20;;;;;;;;;;;;;;;;;;1000944;29;1026;-16
2021/12/09 01:51:52;;;;;;;;;;;;;;;;;;1008444;29;1034;-16
2021/12/09 01:52:22;;;;;;;;;;;;;;;;;;1000544;29;1420;-16
2021/12/09 01:52:53;;;;;;;;;;;;;;;;;;1004271;29;940;-17
2021/12/09 01:53:23;;;;;;;;;;;;;;;;;;1005117;29;983;-17
2021/12/09 01:53:54;;;;;;;;;;;;;;;;;;1004449;29;1142;-17
2021/12/09 01:54:24;;;;;;;;;;;;;;;;;;1013385;29;990;-17
2021/12/09 01:54:55;;;;;;;;;;;;;;;;;;1012835;29;1587;-16
2021/12/09 01:55:26;;;;;;;;;;;;;;;;;;1009125;29;1680;-16
2021/12/09 01:56:02;;;;;;;;;;;;;;;;;;1009169;29;1297;-16
2021/12/09 01:56:33;;;;;;;;;;;;;;;;;;1005256;29;1070;-17
2021/12/09 01:57:05;;;;;;;;;;;;;;;;;;1002499;29;986;-17
2021/12/09 01:57:36;;;;;;;;;;;;;;;;;;1001522;29;948;-17
2021/12/09 01:58:06;;;;;;;;;;;;;;;;;;1001909;29;1132;-17
2021/12/09 01:58:36;;;;;;;;;;;;;;;;;;1009724;29;942;-17
2021/12/09 01:59:07;;;;;;;;;;;;;;;;;;1005766;29;982;-17
2021/12/09 01:59:37;;;;;;;;;;;;;;;;;;1009686;29;1088;-17
2021/12/09 02:00:11;;;;;;;;;;;;;;;;;;1013808;29;947;-16
2021/12/09 02:00:42;;;;;;;;;;;;;;;;;;1013785;29;745;-16
2021/12/09 02:01:12;;;;;;;;;;;;;;;;;;1014019;29;853;-16
2021/12/09 02:01:42;;;;;;;;;;;;;;;;;;1013909;29;804;-16
2021/12/09 02:02:13;;;;;;;;;;;;;;;;;;1013840;29;975;-16
2021/12/09 02:02:49;;;;;;;;;;;;;;;;;;1009108;29;972;-16
2021/12/09 02:03:20;;;;;;;;;;;;;;;;;;1004859;29;1390;-17
2021/12/09 02:03:51;;;;;;;;;;;;;;;;;;997604;29;1010;-16
2021/12/09 02:04:22;;;;;;;;;;;;;;;;;;997331;29;1125;-16
2021/12/09 02:04:52;;;;;;;;;;;;;;;;;;997198;29;1235;-16
2021/12/09 02:05:23;;;;;;;;;;;;;;;;;;1001880;29;1107;-16
2021/12/09 02:05:54;;;;;;;;;;;;;;;;;;1013400;29;1397;-16
2021/12/09 02:06:25;;;;;;;;;;;;;;;;;;1013438;29;1082;-17
2021/12/09 02:06:56;;;;;;;;;;;;;;;;;;1013045;29;1042;-16
2021/12/09 02:07:26;;;;;;;;;;;;;;;;;;1001343;29;980;-16
2021/12/09 02:07:57;;;;;;;;;;;;;;;;;;1001745;29;1040;-16
2021/12/09 02:08:28;;;;;;;;;;;;;;;;;;998978;29;1401;-16
2021/12/09 02:08:59;;;;;;;;;;;;;;;;;;1001856;29;1109;-16
2021/12/09 02:09:29;;;;;;;;;;;;;;;;;;1005153;29;1093;-16
2021/12/09 02:10:00;;;;;;;;;;;;;;;;;;1005350;29;1219;-16
2021/12/09 02:10:30;;;;;;;;;;;;;;;;;;1005259;29;1011;-16
2021/12/09 02:11:01;;;;;;;;;;;;;;;;;;1005537;29;971;-17
2021/12/09 02:11:32;;;;;;;;;;;;;;;;;;1009021;29;1457;-16
2021/12/09 02:12:03;;;;;;;;;;;;;;;;;;1009412;29;1051;-16
2021/12/09 02:12:34;;;;;;;;;;;;;;;;;;1013620;29;1444;-16
2021/12/09 02:13:05;;;;;;;;;;;;;;;;;;1005147;29;1502;-16
2021/12/09 02:13:36;;;;;;;;;;;;;;;;;;1005238;29;1007;-16
2021/12/09 02:14:07;;;;;;;;;;;;;;;;;;1005282;29;1050;-16
2021/12/09 02:14:41;;;;;;;;;;;;;;;;;;997479;29;974;-16
2021/12/09 02:15:11;;;;;;;;;;;;;;;;;;997679;29;1266;-16
2021/12/09 02:15:42;;;;;;;;;;;;;;;;;;997400;29;988;-16
2021/12/09 02:16:13;;;;;;;;;;;;;;;;;;999543;29;889;-16
2021/12/09 02:16:44;;;;;;;;;;;;;;;;;;1013471;29;1086;-16
2021/12/09 02:17:14;;;;;;;;;;;;;;;;;;1005446;29;947;-16
2021/12/09 02:17:45;;;;;;;;;;;;;;;;;;1005203;29;1499;-16
2021/12/09 02:18:16;;;;;;;;;;;;;;;;;;1005009;29;1038;-16
2021/12/09 02:18:47;;;;;;;;;;;;;;;;;;1005163;29;1150;-16
2021/12/09 02:19:18;;;;;;;;;;;;;;;;;;997369;29;1000;-24
2021/12/09 02:19:49;;;;;;;;;;;;;;;;;;997633;29;889;-16
2021/12/09 02:20:19;;;;;;;;;;;;;;;;;;1001939;29;940;-16
2021/12/09 02:21:02;;;;;;;;;;;;;;;;;;1004901;29;1187;-16
2021/12/09 02:21:34;;;;;;;;;;;;;;;;;;1013734;29;1081;-16
2021/12/09 02:22:04;;;;;;;;;;;;;;;;;;1013850;29;1029;-16
2021/12/09 02:22:35;;;;;;;;;;;;;;;;;;1013874;29;817;-16
2021/12/09 02:23:09;;;;;;;;;;;;;;;;;;1013667;29;1275;-16
2021/12/09 02:23:42;;;;;;;;;;;;;;;;;;1013545;29;1021;-16
2021/12/09 02:24:16;;;;;;;;;;;;;;;;;;1013148;29;1037;-16
2021/12/09 02:24:46;;;;;;;;;;;;;;;;;;1004959;29;1068;-16
2021/12/09 02:25:17;;;;;;;;;;;;;;;;;;1005415;29;990;-16
2021/12/09 02:25:48;;;;;;;;;;;;;;;;;;1005415;29;902;-16
2021/12/09 02:26:21;;;;;;;;;;;;;;;;;;1005563;29;977;-16
2021/12/09 02:26:52;;;;;;;;;;;;;;;;;;1008951;29;1919;-16
2021/12/09 02:27:23;;;;;;;;;;;;;;;;;;1008792;29;1412;-16
2021/12/09 02:27:53;;;;;;;;;;;;;;;;;;1005441;29;1104;-16
2021/12/09 02:28:25;;;;;;;;;;;;;;;;;;1005326;29;916;-16
2021/12/09 02:28:56;;;;;;;;;;;;;;;;;;1009375;29;1063;-16
2021/12/09 02:29:27;;;;;;;;;;;;;;;;;;1009335;29;990;-16
2021/12/09 02:29:57;;;;;;;;;;;;;;;;;;1013117;29;961;-16
2021/12/09 02:30:27;;;;;;;;;;;;;;;;;;1012979;29;1279;-16
2021/12/09 02:30:58;;;;;;;;;;;;;;;;;;1013927;29;1087;-16
2021/12/09 02:31:29;;;;;;;;;;;;;;;;;;1013225;29;1220;-15
2021/12/09 02:32:01;;;;;;;;;;;;;;;;;;1013203;29;1093;-16
2021/12/09 02:32:31;;;;;;;;;;;;;;;;;;1013598;29;1059;-16
2021/12/09 02:33:01;;;;;;;;;;;;;;;;;;1013426;29;943;-16
2021/12/09 02:33:32;;;;;;;;;;;;;;;;;;1013805;29;877;-16
2021/12/09 02:34:04;;;;;;;;;;;;;;;;;;1013670;29;772;-16
2021/12/09 02:34:34;;;;;;;;;;;;;;;;;;1014005;29;796;-16
2021/12/09 02:35:05;;;;;;;;;;;;;;;;;;1013565;29;918;-16
2021/12/09 02:35:37;;;;;;;;;;;;;;;;;;1013570;29;923;-16
2021/12/09 02:36:08;;;;;;;;;;;;;;;;;;1013866;29;952;-16
2021/12/09 02:36:40;;;;;;;;;;;;;;;;;;1013827;29;1109;-17
2021/12/09 02:37:13;;;;;;;;;;;;;;;;;;1013939;29;1260;-16
2021/12/09 02:37:44;;;;;;;;;;;;;;;;;;1013427;29;1162;-16
2021/12/09 02:38:15;;;;;;;;;;;;;;;;;;1013428;29;1078;-16
2021/12/09 02:38:47;;;;;;;;;;;;;;;;;;1009655;29;915;-16
2021/12/09 02:39:17;;;;;;;;;;;;;;;;;;1009245;29;1240;-16
2021/12/09 02:39:48;;;;;;;;;;;;;;;;;;1005322;29;951;-16
2021/12/09 02:40:18;;;;;;;;;;;;;;;;;;1005199;29;962;-16
2021/12/09 02:40:49;;;;;;;;;;;;;;;;;;1005179;29;964;-16
2021/12/09 02:41:23;;;;;;;;;;;;;;;;;;1005713;29;903;-16
2021/12/09 02:41:53;;;;;;;;;;;;;;;;;;1012960;29;999;-16
2021/12/09 02:42:24;;;;;;;;;;;;;;;;;;1009200;29;942;-16
2021/12/09 02:42:55;;;;;;;;;;;;;;;;;;1009292;29;1249;-16
2021/12/09 02:43:27;;;;;;;;;;;;;;;;;;1004900;29;1170;-16
2021/12/09 02:44:01;;;;;;;;;;;;;;;;;;1005785;29;1174;-16
2021/12/09 02:44:33;;;;;;;;;;;;;;;;;;1009177;29;1045;-16
2021/12/09 02:45:07;;;;;;;;;;;;;;;;;;1010143;29;922;-16
2021/12/09 02:45:40;;;;;;;;;;;;;;;;;;1005042;29;1452;-16
2021/12/09 02:46:10;;;;;;;;;;;;;;;;;;1004922;29;1454;-16
2021/12/09 02:46:41;;;;;;;;;;;;;;;;;;1005235;29;1915;-16
2021/12/09 02:47:11;;;;;;;;;;;;;;;;;;1005654;29;1381;-16
2021/12/09 02:47:43;;;;;;;;;;;;;;;;;;1008759;29;1106;-16
2021/12/09 02:48:16;;;;;;;;;;;;;;;;;;1001411;29;1093;-16
2021/12/09 02:48:46;;;;;;;;;;;;;;;;;;1001094;29;1068;-16
2021/12/09 02:49:18;;;;;;;;;;;;;;;;;;993908;29;1090;-17
2021/12/09 02:49:49;;;;;;;;;;;;;;;;;;995457;29;978;-16
2021/12/09 02:50:19;;;;;;;;;;;;;;;;;;1005090;29;1082;-16
2021/12/09 02:50:51;;;;;;;;;;;;;;;;;;1005552;29;959;-16
2021/12/09 02:51:22;;;;;;;;;;;;;;;;;;1008574;29;1411;-16
2021/12/09 02:51:53;;;;;;;;;;;;;;;;;;1009310;29;1276;-16
2021/12/09 02:52:23;;;;;;;;;;;;;;;;;;1009265;29;912;-16
2021/12/09 02:52:54;;;;;;;;;;;;;;;;;;1009080;29;1391;-16
2021/12/09 02:53:24;;;;;;;;;;;;;;;;;;1013836;29;1021;-15
2021/12/09 02:53:54;;;;;;;;;;;;;;;;;;1013064;29;970;-16
2021/12/09 02:54:25;;;;;;;;;;;;;;;;;;1013651;29;1010;-16
2021/12/09 02:54:57;;;;;;;;;;;;;;;;;;1013442;29;950;-17
2021/12/09 02:55:28;;;;;;;;;;;;;;;;;;1013054;29;962;-16
2021/12/09 02:55:58;;;;;;;;;;;;;;;;;;1005388;29;1097;-16
2021/12/09 02:56:29;;;;;;;;;;;;;;;;;;1004900;29;1436;-16
2021/12/09 02:57:01;;;;;;;;;;;;;;;;;;1005417;29;972;-16
2021/12/09 02:57:31;;;;;;;;;;;;;;;;;;1005665;29;1181;-17
2021/12/09 02:58:03;;;;;;;;;;;;;;;;;;1008726;29;1159;-17
2021/12/09 02:58:33;;;;;;;;;;;;;;;;;;1005221;29;1046;-17
2021/12/09 02:59:05;;;;;;;;;;;;;;;;;;1004652;29;1366;-16
2021/12/09 02:59:36;;;;;;;;;;;;;;;;;;997471;29;1130;-17
2021/12/09 03:00:08;;;;;;;;;;;;;;;;;;997789;29;908;-17
2021/12/09 03:00:54;;;;;;;;;;;;;;;;;;1005058;29;1166;-17
2021/12/09 03:01:27;;;;;;;;;;;;;;;;;;1010069;29;896;-17
2021/12/09 03:01:59;;;;;;;;;;;;;;;;;;1009199;29;996;-17
2021/12/09 03:02:30;;;;;;;;;;;;;;;;;;1009049;29;962;-17
2021/12/09 03:03:00;;;;;;;;;;;;;;;;;;1009047;29;1074;-17
2021/12/09 03:03:31;;;;;;;;;;;;;;;;;;1009044;29;1217;-17
2021/12/09 03:04:03;;;;;;;;;;;;;;;;;;1013723;29;924;-17
2021/12/09 03:04:39;;;;;;;;;;;;;;;;;;1013300;29;1247;-17
2021/12/09 03:05:09;;;;;;;;;;;;;;;;;;1013689;29;1029;-17
2021/12/09 03:05:40;;;;;;;;;;;;;;;;;;1013626;29;978;-17
2021/12/09 03:06:11;;;;;;;;;;;;;;;;;;1013697;29;1108;-17
2021/12/09 03:06:42;;;;;;;;;;;;;;;;;;1013037;29;1918;-17
2021/12/09 03:07:31;;;;;;;;;;;;;;;;;;1013836;29;994;-17
2021/12/09 03:08:02;;;;;;;;;;;;;;;;;;1013694;29;1030;-17
2021/12/09 03:08:38;;;;;;;;;;;;;;;;;;1013258;29;1060;-17
2021/12/09 03:09:13;;;;;;;;;;;;;;;;;;1009314;29;942;-17
2021/12/09 03:09:49;;;;;;;;;;;;;;;;;;1008891;29;1655;-17
2021/12/09 03:10:24;;;;;;;;;;;;;;;;;;1009131;29;843;-17
2021/12/09 03:10:54;;;;;;;;;;;;;;;;;;1011152;29;1217;-16
2021/12/09 03:11:24;;;;;;;;;;;;;;;;;;1013519;29;1136;-17
2021/12/09 03:11:55;;;;;;;;;;;;;;;;;;1013614;29;1044;-17
2021/12/09 03:12:26;;;;;;;;;;;;;;;;;;1013459;29;1935;-17
2021/12/09 03:12:57;;;;;;;;;;;;;;;;;;1013534;29;1153;-17
2021/12/09 03:13:28;;;;;;;;;;;;;;;;;;1009017;29;1047;-17
2021/12/09 03:13:59;;;;;;;;;;;;;;;;;;1009038;29;899;-17
2021/12/09 03:14:30;;;;;;;;;;;;;;;;;;1009173;29;973;-17
2021/12/09 03:15:01;;;;;;;;;;;;;;;;;;1008682;29;1453;-16
2021/12/09 03:15:33;;;;;;;;;;;;;;;;;;1013546;29;1381;-16
2021/12/09 03:16:04;;;;;;;;;;;;;;;;;;1013462;29;832;-17
2021/12/09 03:16:35;;;;;;;;;;;;;;;;;;1009061;29;1334;-17
2021/12/09 03:17:06;;;;;;;;;;;;;;;;;;1009448;29;1064;-17
2021/12/09 03:17:37;;;;;;;;;;;;;;;;;;1009298;29;1420;-17
2021/12/09 03:18:08;;;;;;;;;;;;;;;;;;1009573;29;1196;-17
2021/12/09 03:18:43;;;;;;;;;;;;;;;;;;1009042;29;1166;-17
2021/12/09 03:19:13;;;;;;;;;;;;;;;;;;1008330;29;1340;-17
2021/12/09 03:19:44;;;;;;;;;;;;;;;;;;1008812;29;1074;-17
2021/12/09 03:20:16;;;;;;;;;;;;;;;;;;1005950;29;956;-17
2021/12/09 03:20:47;;;;;;;;;;;;;;;;;;1009046;29;1320;-17
2021/12/09 03:21:23;;;;;;;;;;;;;;;;;;1009665;29;955;-17
2021/12/09 03:21:54;;;;;;;;;;;;;;;;;;1010306;29;1000;-17
2021/12/09 03:22:25;;;;;;;;;;;;;;;;;;1001273;29;877;-17
2021/12/09 03:22:56;;;;;;;;;;;;;;;;;;1001520;29;1055;-17
2021/12/09 03:23:27;;;;;;;;;;;;;;;;;;1001333;29;975;-17
2021/12/09 03:23:58;;;;;;;;;;;;;;;;;;1001847;29;1122;-16
2021/12/09 03:24:29;;;;;;;;;;;;;;;;;;1013612;29;1010;-17
2021/12/09 03:25:00;;;;;;;;;;;;;;;;;;1012856;29;899;-17
2021/12/09 03:25:30;;;;;;;;;;;;;;;;;;1013241;29;981;-17
2021/12/09 03:26:01;;;;;;;;;;;;;;;;;;1004466;29;1369;-17
2021/12/09 03:26:33;;;;;;;;;;;;;;;;;;1001323;29;1974;-17
2021/12/09 03:27:04;;;;;;;;;;;;;;;;;;1002294;29;959;-18
2021/12/09 03:27:35;;;;;;;;;;;;;;;;;;1005485;29;970;-17
2021/12/09 03:28:05;;;;;;;;;;;;;;;;;;1009230;29;1051;-17
2021/12/09 03:28:35;;;;;;;;;;;;;;;;;;1012942;29;1017;-17
2021/12/09 03:29:07;;;;;;;;;;;;;;;;;;1009024;29;1065;-17
2021/12/09 03:29:38;;;;;;;;;;;;;;;;;;1009100;29;956;-17
2021/12/09 03:30:10;;;;;;;;;;;;;;;;;;1005070;29;911;-17
2021/12/09 03:30:41;;;;;;;;;;;;;;;;;;1005219;29;1021;-17
2021/12/09 03:31:12;;;;;;;;;;;;;;;;;;1004813;29;1393;-17
2021/12/09 03:31:43;;;;;;;;;;;;;;;;;;1005174;29;1069;-17
2021/12/09 03:32:15;;;;;;;;;;;;;;;;;;1008777;29;1172;-16
2021/12/09 03:32:45;;;;;;;;;;;;;;;;;;1008599;29;1170;-17
2021/12/09 03:33:16;;;;;;;;;;;;;;;;;;1009553;29;1267;-16
2021/12/09 03:33:47;;;;;;;;;;;;;;;;;;1004082;29;1329;-16
2021/12/09 03:34:19;;;;;;;;;;;;;;;;;;1005095;29;1087;-16
2021/12/09 03:34:49;;;;;;;;;;;;;;;;;;1004738;29;1152;-17
2021/12/09 03:35:20;;;;;;;;;;;;;;;;;;1005441;29;1194;-17
2021/12/09 03:35:57;;;;;;;;;;;;;;;;;;1013694;29;951;-16
2021/12/09 03:36:28;;;;;;;;;;;;;;;;;;1013181;29;1494;-17
2021/12/09 03:37:02;;;;;;;;;;;;;;;;;;1013728;29;989;-16
2021/12/09 03:37:33;;;;;;;;;;;;;;;;;;1004749;29;1489;-16
2021/12/09 03:38:03;;;;;;;;;;;;;;;;;;1004530;29;1068;-17
2021/12/09 03:38:34;;;;;;;;;;;;;;;;;;1001274;29;1011;-17
2021/12/09 03:39:08;;;;;;;;;;;;;;;;;;1001085;29;1066;-17
2021/12/09 03:39:40;;;;;;;;;;;;;;;;;;1008949;29;1149;-17
2021/12/09 03:40:11;;;;;;;;;;;;;;;;;;1005994;29;1016;-17
2021/12/09 03:40:42;;;;;;;;;;;;;;;;;;1008940;29;1032;-17
2021/12/09 03:41:12;;;;;;;;;;;;;;;;;;1008872;29;993;-17
2021/12/09 03:41:44;;;;;;;;;;;;;;;;;;1008078;29;1698;-16